Weather at Silloth Airfiefd [CLOSED]

Public forecast

Using degrees Celsius for public forecast. Weather courtesy of forecast.io.

Closest aviation weather report (METAR) to Silloth Airfiefd

Closest report is RAF Spadeadam, 30.1 nm (55.8 km) ENE.

2024/05/30 22:20 (retrieved 23 minutes ago)

EGOM 302220Z AUTO 04004KT 9999 NCD 08/06 Q1018

Closest aviation forecast (TAF) to Silloth Airfiefd

Closest forecast is Glasgow Prestwick Airport, 56.5 nm (104.6 km) NW.

2024/05/30 18:00 (retrieved 5 hours ago)

TAF EGPK 301657Z 3018/3118 31008KT 9999 FEW035